Latest Weather Observations for Cape Otway

IDV60801

Issued at 9:31 am EDT Tuesday 31 March 2015 (issued every 30 minutes, with the page automatically refreshed every 10 minutes)

About weather observations | Map of weather stations | Latest weather observations for VIC | Other Formats
Station Details ID: 090015 Name: CAPE OTWAY LIGHTHOUSE Lat: -38.86 Lon: 143.51 Height: 82.0 m
Data from the previous 72 hours. | See also: Recent months at Cape Otway
Date/Time
EDT
Temp
°C
App
Temp
°C
Dew
Point
Rel
Hum
%
Delta-T
°C
Wind Press
QNH
hPa
Press
MSL
hPa
Rain
since 9 am
mm
Dir
 
Spd
km/h
Gust
km/h
Spd
kts
Gust
kts
31/09:30am 16.7 16.2 12.7 77 2.2 NE 7 11 4 6 1026.7 - 0.0
31/09:00am 15.1 14.3 13.0 87 1.2 N 9 9 5 5 1026.7 1026.7 0.0
31/08:30am 13.2 11.7 11.9 92 0.7 N 11 11 6 6 1026.5 - 0.0
31/08:00am 12.0 10.6 10.9 93 0.6 N 9 11 5 6 1026.3 - 0.0
31/07:30am 11.9 9.7 10.8 93 0.6 N 13 15 7 8 1026.2 - 0.0
31/07:00am 12.1 10.3 11.0 93 0.6 NNW 11 13 6 7 1026.1 - 0.0
31/06:30am 12.8 11.6 11.5 92 0.7 NNW 9 11 5 6 1025.5 - 0.0
31/06:00am 13.6 12.2 12.3 92 0.7 N 11 13 6 7 1025.4 1025.4 0.0
31/05:30am 13.8 12.6 12.7 93 0.6 N 11 13 6 7 1025.4 - 0.0
31/05:00am 13.9 12.8 13.0 94 0.5 N 11 13 6 7 1025.4 - 0.0
31/04:30am 13.6 12.4 12.8 95 0.4 N 11 15 6 8 1025.5 - 0.0
31/04:00am 13.3 12.1 12.7 96 0.3 N 11 13 6 7 1025.6 - 0.0
31/03:30am 12.9 11.2 12.3 96 0.3 N 13 15 7 8 1025.7 - 0.0
31/03:00am 12.6 10.8 12.0 96 0.3 N 13 15 7 8 1025.9 1025.9 0.0
31/02:30am 12.7 10.5 12.1 96 0.3 NNW 15 15 8 8 1025.9 - 0.0
31/02:00am 12.5 10.6 11.7 95 0.4 NNW 13 15 7 8 1025.9 - 0.0
31/01:30am 12.8 11.3 12.0 95 0.4 NW 11 13 6 7 1025.9 - 0.0
31/01:00am 13.5 11.8 12.6 94 0.5 NW 13 17 7 9 1026.1 - 0.0
31/12:30am 13.4 11.3 12.5 94 0.5 NNW 15 17 8 9 1026.3 - 0.0
31/12:00am 13.5 11.5 12.6 94 0.5 N 15 17 8 9 1026.4 1026.4 0.0
 
Date/Time
EDT
Temp
°C
App
Temp
°C
Dew
Point
Rel
Hum
%
Delta-T
°C
Wind Press
QNH
hPa
Press
MSL
hPa
Rain
since 9 am
mm
Dir
 
Spd
km/h
Gust
km/h
Spd
kts
Gust
kts
30/11:30pm 14.0 12.4 12.9 93 0.6 NW 13 17 7 9 1026.5 - 0.0
30/11:00pm 14.3 12.8 13.2 93 0.6 NW 13 15 7 8 1026.4 - 0.0
30/10:30pm 13.8 11.7 12.5 92 0.7 NNW 15 17 8 9 1026.4 - 0.0
30/10:00pm 14.1 12.5 12.8 92 0.7 NNW 13 17 7 9 1026.3 - 0.0
30/09:30pm 14.2 12.3 13.1 93 0.6 NNW 15 17 8 9 1026.2 - 0.0
30/09:00pm 14.3 12.8 13.2 93 0.6 NNW 13 17 7 9 1026.2 1026.2 0.0
30/08:30pm 14.8 13.4 13.5 92 0.7 NNW 13 17 7 9 1026.0 - 0.0
30/08:00pm 15.5 14.7 14.0 91 0.8 NW 11 15 6 8 1025.9 - 0.0
30/07:30pm 15.9 14.4 14.1 89 1.0 W 15 19 8 10 1025.7 - 0.0
30/07:00pm 16.3 14.0 14.1 87 1.3 W 19 24 10 13 1025.5 - 0.0
30/06:30pm 16.9 14.5 14.4 85 1.4 W 20 28 11 15 1025.1 - 0.0
30/06:00pm 17.9 16.3 14.0 78 2.2 WNW 15 24 8 13 1024.7 1024.6 0.0
30/05:30pm 18.1 16.5 13.8 76 2.5 W 15 22 8 12 1024.4 - 0.0
30/05:00pm 17.8 15.4 13.9 78 2.2 W 19 26 10 14 1024.3 - 0.0
30/04:30pm 18.3 15.6 14.6 79 2.1 W 22 30 12 16 1024.2 - 0.0
30/04:00pm 18.3 16.2 14.6 79 2.1 W 19 28 10 15 1024.2 - 0.0
30/03:30pm 18.1 15.3 14.2 78 2.2 W 22 28 12 15 1024.3 - 0.0
30/03:00pm 18.5 16.1 14.4 77 2.4 W 20 28 11 15 1024.4 1024.3 0.0
30/02:30pm 18.3 16.0 14.2 77 2.4 W 19 26 10 14 1024.5 - 0.0
30/02:00pm 17.6 14.6 13.7 78 2.2 W 22 28 12 15 1024.7 - 0.0
30/01:30pm 17.6 14.8 13.3 76 2.4 W 20 28 11 15 1024.9 - 0.0
30/01:00pm 17.7 15.2 13.6 77 2.3 W 19 24 10 13 1025.0 - 0.0
30/12:30pm 18.1 16.3 13.2 73 2.8 W 15 20 8 11 1025.0 - 0.0
30/12:00pm 17.5 15.2 13.0 75 2.5 W 17 26 9 14 1025.1 1025.0 0.0
30/11:30am 18.3 16.4 13.0 71 3.0 W 15 20 8 11 1025.1 - 0.0
30/11:00am 18.1 16.2 13.0 72 2.9 NW 15 20 8 11 1024.9 - 0.0
30/10:30am 17.2 15.1 12.5 74 2.6 NW 15 24 8 13 1024.8 - 0.0
30/10:00am 16.5 14.3 12.1 75 2.4 NW 15 20 8 11 1024.7 - 0.0
30/09:30am 16.0 14.5 12.0 77 2.2 WNW 11 17 6 9 1024.5 - 0.0
30/09:00am 14.9 12.6 11.7 81 1.7 NNW 15 19 8 10 1024.1 1024.0 0.0
30/08:30am 13.8 11.0 11.3 85 1.3 NNW 17 22 9 12 1023.6 - 0.0
30/08:00am 13.2 10.0 11.1 87 1.1 NNW 19 24 10 13 1023.4 - 0.0
30/07:30am 12.9 9.6 11.0 88 1.0 N 19 24 10 13 1023.1 - 0.0
30/07:00am 12.9 10.0 11.1 89 0.9 NNW 17 20 9 11 1023.1 - 0.0
30/06:30am 12.9 10.0 11.1 89 0.9 NNW 17 22 9 12 1022.9 - 0.0
30/06:00am 13.3 10.5 11.4 88 1.0 NNW 17 20 9 11 1022.8 1022.7 0.0
30/05:30am 13.5 11.2 11.6 88 1.0 NNW 15 19 8 10 1022.6 - 0.0
30/05:00am 13.3 10.5 11.5 89 1.0 NNW 17 22 9 12 1022.4 - 0.0
30/04:30am 13.2 10.9 11.6 90 0.9 NNW 15 19 8 10 1022.5 - 0.0
30/04:00am 13.0 10.3 11.6 91 0.7 NNW 17 20 9 11 1022.5 - 0.0
30/03:30am 13.2 10.5 11.8 91 0.8 N 17 20 9 11 1022.6 - 0.0
30/03:00am 13.1 10.8 11.7 91 0.7 NNW 15 20 8 11 1022.8 1022.7 0.0
30/02:30am 13.0 10.7 11.7 92 0.7 NNW 15 19 8 10 1023.0 - 0.0
30/02:00am 13.1 10.9 12.0 93 0.6 N 15 17 8 9 1022.9 - 0.0
30/01:30am 13.2 11.1 12.3 94 0.5 NNW 15 19 8 10 1023.0 - 0.0
30/01:00am 13.1 10.9 12.2 94 0.5 NNW 15 19 8 10 1023.1 - 0.0
30/12:30am 13.0 10.8 12.1 94 0.5 NNW 15 19 8 10 1023.0 - 0.0
30/12:00am 13.4 11.3 12.3 93 0.6 NW 15 17 8 9 1023.1 1023.0 0.0
 
Date/Time
EDT
Temp
°C
App
Temp
°C
Dew
Point
Rel
Hum
%
Delta-T
°C
Wind Press
QNH
hPa
Press
MSL
hPa
Rain
since 9 am
mm
Dir
 
Spd
km/h
Gust
km/h
Spd
kts
Gust
kts
29/11:30pm 13.4 11.6 12.1 92 0.7 NW 13 17 7 9 1023.2 - 0.0
29/11:00pm 13.2 10.9 11.9 92 0.7 NW 15 17 8 9 1023.3 - 0.0
29/10:30pm 12.9 10.5 11.3 90 0.8 NNW 15 17 8 9 1023.4 - 0.0
29/10:00pm 13.0 10.5 11.2 89 1.0 NNW 15 17 8 9 1023.3 - 0.0
29/09:30pm 13.7 11.7 11.4 86 1.2 NNW 13 15 7 8 1023.1 - 0.0
29/09:00pm 15.6 13.7 13.1 85 1.4 WNW 15 19 8 10 1022.9 1022.8 0.0
29/08:30pm 15.7 13.7 12.8 83 1.6 WNW 15 22 8 12 1022.7 - 0.0
29/08:00pm 15.7 13.3 12.5 81 1.8 WNW 17 20 9 11 1022.7 - 0.0
29/07:30pm 15.9 13.8 12.3 79 2.0 W 15 20 8 11 1022.4 - 0.0
29/07:00pm 16.5 13.5 12.5 77 2.2 W 20 26 11 14 1022.1 - 0.0
29/06:30pm 16.9 14.0 12.4 75 2.5 W 19 26 10 14 1021.7 - 0.0
29/06:00pm 17.3 13.9 12.4 73 2.7 W 22 28 12 15 1021.5 1021.4 0.0
29/05:30pm 17.4 14.0 12.5 73 2.7 W 22 30 12 16 1021.5 - 0.0
29/05:00pm 17.6 14.7 12.9 74 2.6 W 20 28 11 15 1021.5 - 0.0
29/04:30pm 17.5 14.2 12.8 74 2.6 W 22 30 12 16 1021.4 - 0.0
29/04:00pm 17.8 14.2 12.9 73 2.8 W 24 33 13 18 1021.4 - 0.0
29/03:30pm 17.7 13.2 12.6 72 2.8 W 28 37 15 20 1021.5 - 0.0
29/03:00pm 17.4 12.4 12.1 71 2.9 W 30 39 16 21 1021.5 1021.4 0.0
29/02:30pm 17.7 13.2 12.6 72 2.8 W 28 37 15 20 1021.5 - 0.0
29/02:00pm 17.7 13.5 12.4 71 2.9 W 26 37 14 20 1021.7 - 0.0
29/01:30pm 17.5 13.5 11.8 69 3.1 W 24 35 13 19 1021.8 - 0.0
29/01:00pm 18.1 14.4 11.4 65 3.7 WNW 22 32 12 17 1022.0 - 0.0
29/12:30pm 17.7 13.6 11.3 66 3.5 WNW 24 32 13 17 1022.0 - 0.0
29/12:00pm 17.7 13.6 11.3 66 3.5 WNW 24 33 13 18 1022.1 1022.0 0.0
29/11:30am 17.4 13.6 11.0 66 3.5 WNW 22 32 12 17 1022.2 - 0.0
29/11:00am 16.9 13.5 10.7 67 3.3 WNW 19 28 10 15 1022.2 - 0.0
29/10:30am 16.5 12.8 10.1 66 3.4 WNW 20 32 11 17 1022.2 - 0.0
29/10:00am 16.0 12.1 9.4 65 3.4 NW 20 30 11 16 1022.1 - 0.0
29/09:30am 15.1 11.8 9.5 69 2.9 NW 17 26 9 14 1021.9 - 0.0
29/09:00am 14.4 11.1 9.4 72 2.6 NW 17 24 9 13 1021.7 1021.6 0.0
29/08:30am 12.9 9.6 9.4 79 1.8 NNW 17 22 9 12 1021.6 - 0.0
29/08:00am 11.7 7.9 9.1 84 1.3 N 19 22 10 12 1021.4 - 0.0
29/07:30am 11.5 8.0 8.9 84 1.3 NNW 17 22 9 12 1021.3 - 0.0
29/07:00am 12.0 9.0 9.2 83 1.4 NNW 15 20 8 11 1021.4 - 0.0
29/06:30am 11.9 9.0 9.6 86 1.2 NW 15 19 8 10 1021.2 - 0.0
29/06:00am 10.8 8.1 9.1 89 0.8 NW 13 15 7 8 1020.9 1020.8 0.0
29/05:30am 10.7 7.9 8.6 87 1.0 NW 13 15 7 8 1020.7 - 0.0
29/05:00am 11.5 9.2 8.9 84 1.3 NW 11 15 6 8 1020.5 - 0.0
29/04:30am 11.0 8.2 8.6 85 1.2 NNW 13 17 7 9 1019.9 - 0.0
29/04:00am 11.4 8.6 8.6 83 1.4 NNW 13 17 7 9 1020.0 - 0.0
29/03:30am 11.4 8.2 8.6 83 1.4 NNW 15 17 8 9 1020.2 - 0.0
29/03:00am 11.4 8.2 8.6 83 1.4 NNW 15 17 8 9 1020.3 1020.2 0.0
29/02:30am 11.5 8.4 8.7 83 1.4 NNW 15 19 8 10 1020.5 - 0.0
29/02:00am 11.4 8.2 8.6 83 1.4 NNW 15 17 8 9 1020.7 - 0.0
29/01:30am 11.7 8.6 8.9 83 1.4 NNW 15 17 8 9 1021.1 - 0.0
29/01:00am 11.9 8.9 9.1 83 1.4 NNW 15 19 8 10 1021.4 - 0.0
29/12:30am 12.1 9.2 9.5 84 1.3 NNW 15 20 8 11 1021.6 - 0.0
29/12:00am 11.8 9.2 9.4 85 1.2 NNW 13 17 7 9 1021.9 1021.8 0.0
 
Date/Time
EDT
Temp
°C
App
Temp
°C
Dew
Point
Rel
Hum
%
Delta-T
°C
Wind Press
QNH
hPa
Press
MSL
hPa
Rain
since 9 am
mm
Dir
 
Spd
km/h
Gust
km/h
Spd
kts
Gust
kts
28/11:30pm 12.6 10.6 10.3 86 1.2 NNW 11 13 6 7 1022.1 - 0.0
28/11:00pm 13.0 11.2 10.7 86 1.2 NNW 11 13 6 7 1022.4 - 0.0
28/10:30pm 13.0 11.2 10.9 87 1.1 NNW 11 13 6 7 1022.4 - 0.0
28/10:00pm 12.7 10.9 10.8 88 1.0 NNW 11 13 6 7 1022.5 - 0.0
28/09:30pm 13.1 11.4 11.2 88 1.0 N 11 13 6 7 1022.5 - 0.0
28/09:00pm 13.2 11.9 11.3 88 1.0 NNW 9 11 5 6 1022.5 1022.4 0.0
28/08:30pm 13.4 12.5 11.5 88 1.0 N 7 9 4 5 1022.4 - 0.0
28/08:00pm 13.7 12.9 11.6 87 1.1 NNW 7 11 4 6 1022.3 - 0.0
28/07:30pm 14.0 12.4 11.5 85 1.3 WNW 11 17 6 9 1022.2 - 0.0
28/07:00pm 13.8 11.7 11.3 85 1.3 WNW 13 19 7 10 1022.3 - 0.0
28/06:30pm 13.9 11.9 11.4 85 1.3 W 13 17 7 9 1022.2 - 0.0
28/06:00pm 14.0 12.1 11.9 87 1.1 W 13 19 7 10 1022.3 1022.2 0.0
28/05:30pm 14.0 12.1 11.7 86 1.2 W 13 20 7 11 1022.5 - 0.0
28/05:00pm 13.9 10.7 11.4 85 1.3 W 19 24 10 13 1022.8 - 0.0
28/04:30pm 14.2 11.3 12.2 88 1.1 W 19 26 10 14 1023.1 - 0.0
28/04:00pm 13.7 11.6 12.4 92 0.7 W 15 22 8 12 1023.2 - 0.0
28/03:30pm 13.6 11.4 12.0 90 0.9 W 15 24 8 13 1023.5 - 0.0
28/03:00pm 13.4 10.2 12.0 91 0.8 W 20 30 11 16 1023.6 1023.5 0.0
28/02:30pm 13.8 10.8 12.4 91 0.8 W 20 30 11 16 1023.7 - 0.0
28/02:00pm 13.9 11.1 12.5 91 0.8 W 19 28 10 15 1024.0 - 0.0
28/01:30pm 14.2 11.2 12.1 87 1.1 WNW 19 26 10 14 1024.5 - 0.0
28/01:00pm 16.0 13.6 12.6 80 1.9 WNW 17 28 9 15 1024.6 - 0.0
28/12:30pm 14.9 11.8 11.7 81 1.7 W 19 28 10 15 1025.0 - 0.0
28/12:00pm 15.6 13.2 11.4 76 2.3 W 15 24 8 13 1025.2 1025.1 0.0
28/11:30am 15.1 12.2 11.1 77 2.1 W 17 22 9 12 1025.4 - 0.0
28/11:00am 14.8 11.9 11.0 78 2.0 WNW 17 24 9 13 1025.5 - 0.0
28/10:30am 13.6 10.8 11.5 87 1.1 NW 17 22 9 12 1025.7 - 0.0
28/10:00am 13.1 10.0 11.7 91 0.7 NNW 19 26 10 14 1025.8 - 0.0

Other Formats:

Comma delimited format used in spreadsheet applications
http://www.bom.gov.au/fwo/IDV60801/IDV60801.94842.axf

JavaScript Object Notation format (JSON) in row-major order
http://www.bom.gov.au/fwo/IDV60801/IDV60801.94842.json